sensor_id;sensor_type;location;lat;lon;timestamp;pressure;altitude;pressure_sealevel;temperature;humidity
62524;BME280;53689;56.878;60.672;2023-04-30T00:00:14;98497.03;;;24.15;17.92
62524;BME280;53689;56.878;60.672;2023-04-30T00:02:41;98506.44;;;24.19;19.25
62524;BME280;53689;56.878;60.672;2023-04-30T00:05:09;98493.91;;;24.18;18.83
62524;BME280;53689;56.878;60.672;2023-04-30T00:07:38;98495.81;;;24.11;19.06
62524;BME280;53689;56.878;60.672;2023-04-30T00:10:07;98509.94;;;24.13;17.33
62524;BME280;53689;56.878;60.672;2023-04-30T00:12:34;98504.75;;;24.11;17.86
62524;BME280;53689;56.878;60.672;2023-04-30T00:15:02;98509.34;;;24.11;18.97
62524;BME280;53689;56.878;60.672;2023-04-30T00:17:30;98513.28;;;24.15;15.86
62524;BME280;53689;56.878;60.672;2023-04-30T00:19:58;98532.63;;;24.19;16.59
62524;BME280;53689;56.878;60.672;2023-04-30T00:22:25;98535.97;;;24.14;16.77
62524;BME280;53689;56.878;60.672;2023-04-30T00:24:54;98550.31;;;24.21;16.01
62524;BME280;53689;56.878;60.672;2023-04-30T00:27:22;98571.34;;;24.19;17.83
62524;BME280;53689;56.878;60.672;2023-04-30T00:29:49;98582.34;;;24.24;15.89
62524;BME280;53689;56.878;60.672;2023-04-30T00:32:17;98585.06;;;24.11;18.62
62524;BME280;53689;56.878;60.672;2023-04-30T00:34:45;98582.91;;;24.00;18.77
62524;BME280;53689;56.878;60.672;2023-04-30T00:37:12;98579.22;;;24.01;17.58
62524;BME280;53689;56.878;60.672;2023-04-30T00:39:40;98581.69;;;24.02;19.70
62524;BME280;53689;56.878;60.672;2023-04-30T00:42:09;98577.94;;;24.03;19.94
62524;BME280;53689;56.878;60.672;2023-04-30T00:44:36;98580.88;;;24.02;18.57
62524;BME280;53689;56.878;60.672;2023-04-30T00:47:04;98578.16;;;24.02;18.37
62524;BME280;53689;56.878;60.672;2023-04-30T00:49:32;98585.44;;;24.01;18.94
62524;BME280;53689;56.878;60.672;2023-04-30T00:52:00;98580.66;;;24.03;19.52
62524;BME280;53689;56.878;60.672;2023-04-30T00:54:28;98580.47;;;24.05;17.56
62524;BME280;53689;56.878;60.672;2023-04-30T00:56:57;98572.38;;;24.05;18.98
62524;BME280;53689;56.878;60.672;2023-04-30T00:59:26;98571.75;;;24.09;15.78
62524;BME280;53689;56.878;60.672;2023-04-30T01:01:54;98574.66;;;24.08;16.00
62524;BME280;53689;56.878;60.672;2023-04-30T01:04:21;98580.28;;;24.06;19.68
62524;BME280;53689;56.878;60.672;2023-04-30T01:06:50;98583.53;;;23.88;19.74
62524;BME280;53689;56.878;60.672;2023-04-30T01:09:18;98581.22;;;23.72;19.89
62524;BME280;53689;56.878;60.672;2023-04-30T01:11:54;98577.69;;;23.78;20.38
62524;BME280;53689;56.878;60.672;2023-04-30T01:14:29;98568.97;;;23.76;20.24
62524;BME280;53689;56.878;60.672;2023-04-30T01:17:03;98573.34;;;23.83;17.27
62524;BME280;53689;56.878;60.672;2023-04-30T01:19:39;98573.31;;;23.77;19.64
62524;BME280;53689;56.878;60.672;2023-04-30T01:22:10;98576.69;;;23.99;19.83
62524;BME280;53689;56.878;60.672;2023-04-30T01:24:58;98576.31;;;24.09;19.61
62524;BME280;53689;56.878;60.672;2023-04-30T01:30:11;98585.25;;;24.16;20.41
62524;BME280;53689;56.878;60.672;2023-04-30T01:32:39;98582.47;;;23.82;19.31
62524;BME280;53689;56.878;60.672;2023-04-30T01:35:08;98594.34;;;23.81;20.06
62524;BME280;53689;56.878;60.672;2023-04-30T01:37:43;98606.44;;;23.86;20.44
62524;BME280;53689;56.878;60.672;2023-04-30T01:40:23;98614.06;;;23.75;19.23
62524;BME280;53689;56.878;60.672;2023-04-30T01:42:59;98613.06;;;23.83;19.97
62524;BME280;53689;56.878;60.672;2023-04-30T01:45:49;98623.22;;;23.74;18.67
62524;BME280;53689;56.878;60.672;2023-04-30T01:48:29;98625.31;;;23.79;19.56
62524;BME280;53689;56.878;60.672;2023-04-30T01:51:06;98623.25;;;23.81;20.79
62524;BME280;53689;56.878;60.672;2023-04-30T01:53:39;98632.63;;;23.92;19.54
62524;BME280;53689;56.878;60.672;2023-04-30T01:56:11;98635.56;;;23.90;19.22
62524;BME280;53689;56.878;60.672;2023-04-30T01:58:42;98638.88;;;23.92;16.59
62524;BME280;53689;56.878;60.672;2023-04-30T02:01:26;98635.56;;;23.90;18.84
62524;BME280;53689;56.878;60.672;2023-04-30T02:03:54;98630.34;;;23.95;15.64
62524;BME280;53689;56.878;60.672;2023-04-30T02:06:22;98637.00;;;23.86;17.01
62524;BME280;53689;56.878;60.672;2023-04-30T02:08:50;98628.06;;;23.86;19.14
62524;BME280;53689;56.878;60.672;2023-04-30T02:11:18;98633.03;;;23.82;16.22
62524;BME280;53689;56.878;60.672;2023-04-30T02:13:45;98638.03;;;23.85;16.14
62524;BME280;53689;56.878;60.672;2023-04-30T02:16:14;98639.50;;;23.81;17.78
62524;BME280;53689;56.878;60.672;2023-04-30T02:18:44;98628.25;;;23.77;16.47
62524;BME280;53689;56.878;60.672;2023-04-30T02:21:12;98628.19;;;23.70;15.82
62524;BME280;53689;56.878;60.672;2023-04-30T02:23:39;98637.59;;;23.75;18.54
62524;BME280;53689;56.878;60.672;2023-04-30T02:26:07;98637.34;;;23.69;18.89
62524;BME280;53689;56.878;60.672;2023-04-30T02:28:35;98630.72;;;23.72;18.80
62524;BME280;53689;56.878;60.672;2023-04-30T02:31:03;98630.72;;;23.79;18.94
62524;BME280;53689;56.878;60.672;2023-04-30T02:33:31;98624.94;;;23.82;16.79
62524;BME280;53689;56.878;60.672;2023-04-30T02:36:00;98620.94;;;23.78;19.73
62524;BME280;53689;56.878;60.672;2023-04-30T02:38:28;98622.00;;;23.83;17.39
62524;BME280;53689;56.878;60.672;2023-04-30T02:40:55;98623.28;;;23.88;16.79
62524;BME280;53689;56.878;60.672;2023-04-30T02:43:23;98612.47;;;23.94;16.25
62524;BME280;53689;56.878;60.672;2023-04-30T02:45:51;98619.97;;;23.92;15.45
62524;BME280;53689;56.878;60.672;2023-04-30T02:48:18;98620.75;;;23.86;19.08
62524;BME280;53689;56.878;60.672;2023-04-30T02:50:47;98625.31;;;23.79;16.47
62524;BME280;53689;56.878;60.672;2023-04-30T02:53:16;98634.91;;;23.88;19.09
62524;BME280;53689;56.878;60.672;2023-04-30T02:55:43;98632.00;;;23.83;18.15
62524;BME280;53689;56.878;60.672;2023-04-30T02:58:11;98636.19;;;23.86;19.37
62524;BME280;53689;56.878;60.672;2023-04-30T03:00:38;98638.22;;;23.83;17.98
62524;BME280;53689;56.878;60.672;2023-04-30T03:03:06;98642.41;;;23.86;17.25
62524;BME280;53689;56.878;60.672;2023-04-30T03:05:34;98636.38;;;23.84;18.27
62524;BME280;53689;56.878;60.672;2023-04-30T03:08:02;98637.63;;;23.88;17.63
62524;BME280;53689;56.878;60.672;2023-04-30T03:10:31;98638.22;;;23.83;15.82
62524;BME280;53689;56.878;60.672;2023-04-30T03:12:58;98642.59;;;23.84;15.53
62524;BME280;53689;56.878;60.672;2023-04-30T03:15:26;98634.09;;;23.88;15.56
62524;BME280;53689;56.878;60.672;2023-04-30T03:17:54;98637.78;;;23.80;17.00
62524;BME280;53689;56.878;60.672;2023-04-30T03:20:22;98628.28;;;23.00;16.29
62524;BME280;53689;56.878;60.672;2023-04-30T03:22:50;98635.47;;;22.93;19.68
62524;BME280;53689;56.878;60.672;2023-04-30T03:25:18;98635.84;;;23.53;17.29
62524;BME280;53689;56.878;60.672;2023-04-30T03:27:47;98642.09;;;23.54;19.51
62524;BME280;53689;56.878;60.672;2023-04-30T03:30:14;98645.50;;;23.76;16.56
62524;BME280;53689;56.878;60.672;2023-04-30T03:32:42;98649.00;;;23.70;18.88
62524;BME280;53689;56.878;60.672;2023-04-30T03:35:09;98644.91;;;23.81;16.57
62524;BME280;53689;56.878;60.672;2023-04-30T03:37:37;98648.81;;;23.72;16.23
62524;BME280;53689;56.878;60.672;2023-04-30T03:40:06;98651.28;;;23.73;17.31
62524;BME280;53689;56.878;60.672;2023-04-30T03:42:34;98651.09;;;23.68;16.54
62524;BME280;53689;56.878;60.672;2023-04-30T03:45:04;98652.94;;;23.67;16.20
62524;BME280;53689;56.878;60.672;2023-04-30T03:47:32;98661.72;;;23.76;15.83
62524;BME280;53689;56.878;60.672;2023-04-30T03:50:01;98652.97;;;23.74;17.25
62524;BME280;53689;56.878;60.672;2023-04-30T03:52:29;98649.81;;;23.70;17.01
62524;BME280;53689;56.878;60.672;2023-04-30T03:54:57;98639.44;;;23.67;15.64
62524;BME280;53689;56.878;60.672;2023-04-30T03:57:25;98638.78;;;23.59;16.45
62524;BME280;53689;56.878;60.672;2023-04-30T03:59:52;98640.09;;;23.83;15.40
62524;BME280;53689;56.878;60.672;2023-04-30T04:02:22;98631.38;;;23.81;16.93
62524;BME280;53689;56.878;60.672;2023-04-30T04:04:50;98633.66;;;23.77;17.84
62524;BME280;53689;56.878;60.672;2023-04-30T04:07:18;98652.94;;;23.67;18.14
62524;BME280;53689;56.878;60.672;2023-04-30T04:09:45;98653.56;;;23.69;18.46
62524;BME280;53689;56.878;60.672;2023-04-30T04:12:13;98647.13;;;23.70;18.36
62524;BME280;53689;56.878;60.672;2023-04-30T04:14:41;98647.31;;;23.62;18.67
62524;BME280;53689;56.878;60.672;2023-04-30T04:17:08;98645.03;;;23.66;16.66
62524;BME280;53689;56.878;60.672;2023-04-30T04:19:37;98640.28;;;23.75;16.43
62524;BME280;53689;56.878;60.672;2023-04-30T04:22:05;98634.81;;;23.61;19.01
62524;BME280;53689;56.878;60.672;2023-04-30T04:24:33;98642.09;;;23.54;18.83
62524;BME280;53689;56.878;60.672;2023-04-30T04:27:01;98637.53;;;23.61;18.21
62524;BME280;53689;56.878;60.672;2023-04-30T04:29:29;98641.09;;;23.68;18.37
62524;BME280;53689;56.878;60.672;2023-04-30T04:31:56;98636.91;;;23.59;16.38
62524;BME280;53689;56.878;60.672;2023-04-30T04:34:24;98636.41;;;23.35;19.76
62524;BME280;53689;56.878;60.672;2023-04-30T04:36:53;98633.16;;;23.60;18.67
62524;BME280;53689;56.878;60.672;2023-04-30T04:39:21;98639.22;;;23.62;16.01
62524;BME280;53689;56.878;60.672;2023-04-30T04:41:49;98642.75;;;23.69;15.82
62524;BME280;53689;56.878;60.672;2023-04-30T04:44:17;98631.94;;;23.63;17.89
62524;BME280;53689;56.878;60.672;2023-04-30T04:46:45;98636.50;;;23.62;19.26
62524;BME280;53689;56.878;60.672;2023-04-30T04:49:13;98633.66;;;23.77;15.29
62524;BME280;53689;56.878;60.672;2023-04-30T04:51:41;98629.06;;;23.78;17.54
62524;BME280;53689;56.878;60.672;2023-04-30T04:54:10;98636.50;;;23.62;17.25
62524;BME280;53689;56.878;60.672;2023-04-30T04:56:38;98638.34;;;23.55;18.46
62524;BME280;53689;56.878;60.672;2023-04-30T04:59:06;98637.13;;;23.64;17.43
62524;BME280;53689;56.878;60.672;2023-04-30T05:01:34;98636.72;;;23.67;16.24
62524;BME280;53689;56.878;60.672;2023-04-30T05:04:01;98621.78;;;23.72;16.46
62524;BME280;53689;56.878;60.672;2023-04-30T05:06:29;98632.59;;;23.72;16.31
62524;BME280;53689;56.878;60.672;2023-04-30T05:08:57;98631.50;;;23.59;17.43
62524;BME280;53689;56.878;60.672;2023-04-30T05:11:26;98629.66;;;23.66;17.02
62524;BME280;53689;56.878;60.672;2023-04-30T05:13:53;98627.97;;;23.59;16.15
62524;BME280;53689;56.878;60.672;2023-04-30T05:16:21;98627.56;;;23.68;17.20
62524;BME280;53689;56.878;60.672;2023-04-30T05:18:49;98624.44;;;23.65;16.00
62524;BME280;53689;56.878;60.672;2023-04-30T05:21:16;98631.31;;;23.67;16.45
62524;BME280;53689;56.878;60.672;2023-04-30T05:23:45;98630.69;;;23.65;15.71
62524;BME280;53689;56.878;60.672;2023-04-30T05:26:13;98627.31;;;23.56;16.27
62524;BME280;53689;56.878;60.672;2023-04-30T05:28:42;98626.38;;;23.29;17.90
62524;BME280;53689;56.878;60.672;2023-04-30T05:31:10;98632.50;;;23.16;18.91
62524;BME280;53689;56.878;60.672;2023-04-30T05:33:38;98654.84;;;22.68;17.57
62524;BME280;53689;56.878;60.672;2023-04-30T05:36:05;98660.78;;;22.41;18.73
62524;BME280;53689;56.878;60.672;2023-04-30T05:38:33;98657.63;;;22.53;17.50
62524;BME280;53689;56.878;60.672;2023-04-30T05:41:01;98651.50;;;22.94;19.44
62524;BME280;53689;56.878;60.672;2023-04-30T05:43:29;98654.94;;;23.10;17.11
62524;BME280;53689;56.878;60.672;2023-04-30T05:45:58;98664.88;;;23.09;19.72
62524;BME280;53689;56.878;60.672;2023-04-30T05:48:26;98663.47;;;22.85;19.15
62524;BME280;53689;56.878;60.672;2023-04-30T05:50:55;98656.47;;;23.26;19.62
62524;BME280;53689;56.878;60.672;2023-04-30T05:53:23;98651.63;;;23.14;17.76
62524;BME280;53689;56.878;60.672;2023-04-30T05:55:50;98646.06;;;22.88;19.18
62524;BME280;53689;56.878;60.672;2023-04-30T05:58:18;98639.66;;;22.95;19.26
62524;BME280;53689;56.878;60.672;2023-04-30T06:00:48;98641.91;;;22.92;18.33
62524;BME280;53689;56.878;60.672;2023-04-30T06:03:17;98657.72;;;22.66;17.90
62524;BME280;53689;56.878;60.672;2023-04-30T06:05:45;98651.78;;;22.78;17.75
62524;BME280;53689;56.878;60.672;2023-04-30T06:08:14;98650.38;;;22.82;18.77
62524;BME280;53689;56.878;60.672;2023-04-30T06:10:42;98648.06;;;23.07;17.67
62524;BME280;53689;56.878;60.672;2023-04-30T06:13:09;98643.25;;;23.03;18.39
62524;BME280;53689;56.878;60.672;2023-04-30T06:15:37;98646.28;;;22.93;19.05
62524;BME280;53689;56.878;60.672;2023-04-30T06:18:05;98637.50;;;22.84;18.50
62524;BME280;53689;56.878;60.672;2023-04-30T06:20:35;98644.75;;;22.83;19.48
62524;BME280;53689;56.878;60.672;2023-04-30T06:23:03;98637.13;;;23.22;18.66
62524;BME280;53689;56.878;60.672;2023-04-30T06:25:31;98634.19;;;23.17;17.33
62524;BME280;53689;56.878;60.672;2023-04-30T06:27:58;98644.16;;;23.17;18.71
62524;BME280;53689;56.878;60.672;2023-04-30T06:30:26;98642.13;;;23.25;19.38
62524;BME280;53689;56.878;60.672;2023-04-30T06:32:53;98638.69;;;23.38;19.50
62524;BME280;53689;56.878;60.672;2023-04-30T06:35:21;98639.53;;;23.39;17.67
62524;BME280;53689;56.878;60.672;2023-04-30T06:37:51;98635.97;;;23.38;19.70
62524;BME280;53689;56.878;60.672;2023-04-30T06:40:18;98647.31;;;23.20;19.46
62524;BME280;53689;56.878;60.672;2023-04-30T06:42:47;98649.25;;;23.33;19.91
62524;BME280;53689;56.878;60.672;2023-04-30T06:45:14;98644.53;;;23.13;19.26
62524;BME280;53689;56.878;60.672;2023-04-30T06:47:42;98644.88;;;23.32;17.89
62524;BME280;53689;56.878;60.672;2023-04-30T06:50:10;98628.19;;;23.22;18.71
62524;BME280;53689;56.878;60.672;2023-04-30T06:52:39;98623.94;;;23.34;17.49
62524;BME280;53689;56.878;60.672;2023-04-30T06:55:09;98629.94;;;23.30;18.47
62524;BME280;53689;56.878;60.672;2023-04-30T06:57:37;98625.22;;;23.52;16.16
62524;BME280;53689;56.878;60.672;2023-04-30T07:00:05;98626.88;;;23.46;18.89
62524;BME280;53689;56.878;60.672;2023-04-30T07:02:32;98638.94;;;23.44;16.85
62524;BME280;53689;56.878;60.672;2023-04-30T07:05:00;98640.63;;;23.58;16.56
62524;BME280;53689;56.878;60.672;2023-04-30T07:07:28;98637.72;;;23.53;18.65
62524;BME280;53689;56.878;60.672;2023-04-30T07:09:56;98645.78;;;23.46;16.68
62524;BME280;53689;56.878;60.672;2023-04-30T07:12:25;98647.50;;;23.54;17.74
62524;BME280;53689;56.878;60.672;2023-04-30T07:14:53;98644.03;;;23.74;16.08
62524;BME280;53689;56.878;60.672;2023-04-30T07:17:20;98648.56;;;23.66;16.02
62524;BME280;53689;56.878;60.672;2023-04-30T07:19:50;98633.41;;;23.65;17.58
62524;BME280;53689;56.878;60.672;2023-04-30T07:22:18;98630.06;;;23.63;16.33
62524;BME280;53689;56.878;60.672;2023-04-30T07:24:45;98618.47;;;23.83;15.33
62524;BME280;53689;56.878;60.672;2023-04-30T07:27:13;98615.97;;;23.75;15.93
62524;BME280;53689;56.878;60.672;2023-04-30T07:29:42;98635.06;;;23.73;15.93
62524;BME280;53689;56.878;60.672;2023-04-30T07:32:10;98629.50;;;23.81;15.86
62524;BME280;53689;56.878;60.672;2023-04-30T07:34:37;98625.31;;;23.79;16.42
62524;BME280;53689;56.878;60.672;2023-04-30T07:37:05;98620.28;;;23.62;16.04
62524;BME280;53689;56.878;60.672;2023-04-30T07:39:32;98626.53;;;23.69;17.51
62524;BME280;53689;56.878;60.672;2023-04-30T07:42:00;98633.81;;;23.62;16.56
62524;BME280;53689;56.878;60.672;2023-04-30T07:44:27;98634.47;;;23.29;16.94
62524;BME280;53689;56.878;60.672;2023-04-30T07:46:57;98637.03;;;23.44;19.30
62524;BME280;53689;56.878;60.672;2023-04-30T07:49:24;98632.06;;;23.48;18.55
62524;BME280;53689;56.878;60.672;2023-04-30T07:51:52;98635.03;;;23.60;19.77
62524;BME280;53689;56.878;60.672;2023-04-30T07:54:19;98624.63;;;23.56;18.72
62524;BME280;53689;56.878;60.672;2023-04-30T07:56:47;98617.44;;;23.77;17.67
62524;BME280;53689;56.878;60.672;2023-04-30T07:59:15;98621.47;;;23.46;18.40
62524;BME280;53689;56.878;60.672;2023-04-30T08:01:43;98629.41;;;23.54;17.52
62524;BME280;53689;56.878;60.672;2023-04-30T08:04:13;98614.47;;;23.65;18.38
62524;BME280;53689;56.878;60.672;2023-04-30T08:06:42;98617.97;;;23.59;19.45
62524;BME280;53689;56.878;60.672;2023-04-30T08:09:10;98609.09;;;23.72;16.66
62524;BME280;53689;56.878;60.672;2023-04-30T08:11:38;98610.56;;;23.88;16.27
62524;BME280;53689;56.878;60.672;2023-04-30T08:14:06;98606.44;;;23.92;18.14
62524;BME280;53689;56.878;60.672;2023-04-30T08:16:34;98603.50;;;23.87;16.87
62524;BME280;53689;56.878;60.672;2023-04-30T08:19:01;98602.97;;;24.05;15.91
62524;BME280;53689;56.878;60.672;2023-04-30T08:21:30;98602.28;;;23.96;16.12
62524;BME280;53689;56.878;60.672;2023-04-30T08:23:58;98594.59;;;24.00;16.23
62524;BME280;53689;56.878;60.672;2023-04-30T08:26:26;98595.47;;;24.07;16.15
62524;BME280;53689;56.878;60.672;2023-04-30T08:28:56;98608.72;;;23.95;15.87
62524;BME280;53689;56.878;60.672;2023-04-30T08:31:24;98605.16;;;23.75;18.17
62524;BME280;53689;56.878;60.672;2023-04-30T08:33:52;98599.53;;;23.76;16.90
62524;BME280;53689;56.878;60.672;2023-04-30T08:36:20;98609.94;;;23.79;16.27
62524;BME280;53689;56.878;60.672;2023-04-30T08:38:49;98612.44;;;23.81;17.17
62524;BME280;53689;56.878;60.672;2023-04-30T08:41:17;98606.19;;;23.74;17.26
62524;BME280;53689;56.878;60.672;2023-04-30T08:43:47;98607.59;;;23.63;17.80
62524;BME280;53689;56.878;60.672;2023-04-30T08:46:19;98603.44;;;23.60;18.03
62524;BME280;53689;56.878;60.672;2023-04-30T08:48:48;98604.09;;;23.76;18.22
62524;BME280;53689;56.878;60.672;2023-04-30T08:51:16;98626.50;;;23.56;17.46
62524;BME280;53689;56.878;60.672;2023-04-30T08:53:44;98634.19;;;23.59;16.60
62524;BME280;53689;56.878;60.672;2023-04-30T08:56:14;98631.22;;;23.47;16.85
62524;BME280;53689;56.878;60.672;2023-04-30T08:58:42;98630.56;;;23.38;16.28
62524;BME280;53689;56.878;60.672;2023-04-30T09:01:10;98613.56;;;23.45;16.40
62524;BME280;53689;56.878;60.672;2023-04-30T09:03:38;98632.78;;;23.63;16.68
62524;BME280;53689;56.878;60.672;2023-04-30T09:06:06;98627.59;;;23.75;15.88
62524;BME280;53689;56.878;60.672;2023-04-30T09:08:41;98620.50;;;23.67;16.77
62524;BME280;53689;56.878;60.672;2023-04-30T09:11:24;98615.34;;;23.73;17.60
62524;BME280;53689;56.878;60.672;2023-04-30T09:13:53;98618.59;;;23.61;16.67
62524;BME280;53689;56.878;60.672;2023-04-30T09:16:22;98613.69;;;23.72;16.47
62524;BME280;53689;56.878;60.672;2023-04-30T09:18:51;98623.22;;;23.74;16.43
62524;BME280;53689;56.878;60.672;2023-04-30T09:21:30;98615.97;;;23.88;16.98
62524;BME280;53689;56.878;60.672;2023-04-30T09:23:58;98616.13;;;23.66;18.75
62524;BME280;53689;56.878;60.672;2023-04-30T09:26:30;98613.69;;;23.85;17.77
62524;BME280;53689;56.878;60.672;2023-04-30T09:28:59;98614.94;;;23.82;16.51
62524;BME280;53689;56.878;60.672;2023-04-30T09:31:27;98613.69;;;23.78;17.59
62524;BME280;53689;56.878;60.672;2023-04-30T09:33:55;98606.81;;;23.82;16.44
62524;BME280;53689;56.878;60.672;2023-04-30T09:36:23;98610.75;;;23.80;18.34
62524;BME280;53689;56.878;60.672;2023-04-30T09:38:51;98612.66;;;23.86;16.09
62524;BME280;53689;56.878;60.672;2023-04-30T09:41:23;98606.25;;;24.01;17.98
62524;BME280;53689;56.878;60.672;2023-04-30T09:43:53;98619.53;;;23.95;16.48
62524;BME280;53689;56.878;60.672;2023-04-30T09:46:21;98609.97;;;24.00;17.32
62524;BME280;53689;56.878;60.672;2023-04-30T09:48:57;98617.44;;;23.91;16.43
62524;BME280;53689;56.878;60.672;2023-04-30T09:51:24;98614.41;;;24.07;15.81
62524;BME280;53689;56.878;60.672;2023-04-30T09:53:54;98621.03;;;24.05;17.50
62524;BME280;53689;56.878;60.672;2023-04-30T09:56:23;98618.72;;;24.02;15.56
62524;BME280;53689;56.878;60.672;2023-04-30T09:58:54;98613.25;;;23.68;17.02
62524;BME280;53689;56.878;60.672;2023-04-30T10:01:25;98617.25;;;23.99;16.75
62524;BME280;53689;56.878;60.672;2023-04-30T10:03:53;98615.19;;;24.01;15.87
62524;BME280;53689;56.878;60.672;2023-04-30T10:06:21;98611.25;;;24.04;16.41
62524;BME280;53689;56.878;60.672;2023-04-30T10:08:52;98606.88;;;24.03;16.19
62524;BME280;53689;56.878;60.672;2023-04-30T10:11:26;98602.53;;;24.22;15.72
62524;BME280;53689;56.878;60.672;2023-04-30T10:13:59;98603.81;;;24.19;15.76
62524;BME280;53689;56.878;60.672;2023-04-30T10:16:34;98598.41;;;23.44;16.54
62524;BME280;53689;56.878;60.672;2023-04-30T10:19:06;98604.56;;;24.00;15.73
62524;BME280;53689;56.878;60.672;2023-04-30T10:21:38;98595.44;;;24.01;15.53
62524;BME280;53689;56.878;60.672;2023-04-30T10:24:07;98593.16;;;24.04;15.80
62524;BME280;53689;56.878;60.672;2023-04-30T10:26:35;98593.53;;;24.01;15.74
62524;BME280;53689;56.878;60.672;2023-04-30T10:29:04;98596.06;;;23.96;15.90
62524;BME280;53689;56.878;60.672;2023-04-30T10:31:33;98590.69;;;24.09;15.91
62524;BME280;53689;56.878;60.672;2023-04-30T10:34:08;98582.47;;;23.82;17.55
62524;BME280;53689;56.878;60.672;2023-04-30T10:36:42;98593.53;;;23.94;15.44
62524;BME280;53689;56.878;60.672;2023-04-30T10:39:12;98591.72;;;24.08;15.52
62524;BME280;53689;56.878;60.672;2023-04-30T10:41:39;98583.53;;;23.88;16.95
62524;BME280;53689;56.878;60.672;2023-04-30T10:44:12;98575.66;;;24.00;16.54
62524;BME280;53689;56.878;60.672;2023-04-30T10:46:39;98579.47;;;24.26;15.15
62524;BME280;53689;56.878;60.672;2023-04-30T10:49:08;98574.66;;;24.08;16.11
62524;BME280;53689;56.878;60.672;2023-04-30T10:51:45;98579.22;;;24.21;15.31
62524;BME280;53689;56.878;60.672;2023-04-30T10:54:15;98576.31;;;24.29;15.58
62524;BME280;53689;56.878;60.672;2023-04-30T10:56:44;98585.25;;;24.16;15.55
62524;BME280;53689;56.878;60.672;2023-04-30T10:59:13;98577.94;;;24.03;17.21
62524;BME280;53689;56.878;60.672;2023-04-30T11:01:55;98580.91;;;24.15;15.30
62524;BME280;53689;56.878;60.672;2023-04-30T11:04:24;98578.41;;;24.07;16.25
62524;BME280;53689;56.878;60.672;2023-04-30T11:07:00;98567.38;;;24.15;15.98
62524;BME280;53689;56.878;60.672;2023-04-30T11:09:37;98568.84;;;24.18;15.33
62524;BME280;53689;56.878;60.672;2023-04-30T11:12:10;98560.09;;;24.16;15.66
62524;BME280;53689;56.878;60.672;2023-04-30T11:14:44;98554.88;;;24.28;15.25
62524;BME280;53689;56.878;60.672;2023-04-30T11:17:21;98567.16;;;24.23;15.27
62524;BME280;53689;56.878;60.672;2023-04-30T11:19:50;98573.00;;;24.41;15.54
62524;BME280;53689;56.878;60.672;2023-04-30T11:22:20;98556.34;;;24.23;16.70
62524;BME280;53689;56.878;60.672;2023-04-30T11:25:02;98553.00;;;24.35;16.14
62524;BME280;53689;56.878;60.672;2023-04-30T11:27:31;98549.50;;;24.34;15.41
62524;BME280;53689;56.878;60.672;2023-04-30T11:30:02;98552.63;;;24.38;15.66
62524;BME280;53689;56.878;60.672;2023-04-30T11:32:34;98554.66;;;24.56;17.52
62524;BME280;53689;56.878;60.672;2023-04-30T11:35:04;98550.94;;;24.50;16.01
62524;BME280;53689;56.878;60.672;2023-04-30T11:37:33;98562.59;;;24.31;15.48
62524;BME280;53689;56.878;60.672;2023-04-30T11:40:03;98570.28;;;24.34;15.80
62524;BME280;53689;56.878;60.672;2023-04-30T11:42:32;98565.66;;;24.61;15.49
62524;BME280;53689;56.878;60.672;2023-04-30T11:45:07;98557.16;;;24.44;15.74
62524;BME280;53689;56.878;60.672;2023-04-30T11:47:42;98536.38;;;24.45;15.87
62524;BME280;53689;56.878;60.672;2023-04-30T11:50:12;98539.28;;;24.43;15.53
62524;BME280;53689;56.878;60.672;2023-04-30T11:52:40;98533.84;;;24.43;15.75
62524;BME280;53689;56.878;60.672;2023-04-30T11:55:12;98536.56;;;24.23;15.51
62524;BME280;53689;56.878;60.672;2023-04-30T11:57:41;98542.63;;;24.32;15.36
62524;BME280;53689;56.878;60.672;2023-04-30T12:00:13;98535.13;;;24.34;15.54
62524;BME280;53689;56.878;60.672;2023-04-30T12:02:42;98525.09;;;24.48;15.80
62524;BME280;53689;56.878;60.672;2023-04-30T12:05:14;98526.78;;;24.42;15.42
62524;BME280;53689;56.878;60.672;2023-04-30T12:07:50;98534.69;;;24.50;15.76
62524;BME280;53689;56.878;60.672;2023-04-30T12:10:19;98531.56;;;24.53;15.75
62524;BME280;53689;56.878;60.672;2023-04-30T12:12:48;98531.13;;;24.50;15.51
62524;BME280;53689;56.878;60.672;2023-04-30T12:15:21;98537.59;;;24.49;15.82
62524;BME280;53689;56.878;60.672;2023-04-30T12:17:49;98534.88;;;24.62;15.55
62524;BME280;53689;56.878;60.672;2023-04-30T12:20:18;98529.22;;;24.64;14.82
62524;BME280;53689;56.878;60.672;2023-04-30T12:22:47;98535.50;;;24.58;15.33
62524;BME280;53689;56.878;60.672;2023-04-30T12:25:18;98524.25;;;24.61;14.81
62524;BME280;53689;56.878;60.672;2023-04-30T12:27:48;98530.47;;;24.75;14.87
62524;BME280;53689;56.878;60.672;2023-04-30T12:30:20;98530.50;;;24.68;15.67
62524;BME280;53689;56.878;60.672;2023-04-30T12:32:50;98533.41;;;24.66;15.43
62524;BME280;53689;56.878;60.672;2023-04-30T12:35:19;98512.81;;;24.59;15.38
62524;BME280;53689;56.878;60.672;2023-04-30T12:37:48;98508.44;;;24.58;15.59
62524;BME280;53689;56.878;60.672;2023-04-30T12:40:18;98495.16;;;24.22;16.27
62524;BME280;53689;56.878;60.672;2023-04-30T12:42:45;98507.44;;;24.32;16.05
62524;BME280;53689;56.878;60.672;2023-04-30T12:45:44;98511.19;;;24.37;15.59
62524;BME280;53689;56.878;60.672;2023-04-30T12:48:14;98514.69;;;24.51;16.02
62524;BME280;53689;56.878;60.672;2023-04-30T12:50:45;98513.44;;;24.54;16.28
62524;BME280;53689;56.878;60.672;2023-04-30T12:53:14;98531.31;;;24.62;15.76
62524;BME280;53689;56.878;60.672;2023-04-30T12:55:42;98525.31;;;24.53;17.15
62524;BME280;53689;56.878;60.672;2023-04-30T12:58:12;98513.41;;;24.67;15.81
62524;BME280;53689;56.878;60.672;2023-04-30T13:00:46;98503.41;;;24.61;16.62
62524;BME280;53689;56.878;60.672;2023-04-30T13:03:15;98497.81;;;24.63;15.40